sensor_id;sensor_type;location;lat;lon;timestamp;temperature;humidity
52769;DHT22;40471;44.534;18.644;2024-03-23T00:55:13;8.60;99.90
52769;DHT22;40471;44.534;18.644;2024-03-23T00:57:39;8.60;99.90
52769;DHT22;40471;44.534;18.644;2024-03-23T01:00:05;8.60;99.90
52769;DHT22;40471;44.534;18.644;2024-03-23T01:02:32;8.60;99.90
52769;DHT22;40471;44.534;18.644;2024-03-23T01:04:58;8.50;99.90
52769;DHT22;40471;44.534;18.644;2024-03-23T01:07:23;8.50;99.90
52769;DHT22;40471;44.534;18.644;2024-03-23T01:09:49;8.40;99.90
52769;DHT22;40471;44.534;18.644;2024-03-23T01:12:15;8.40;99.90
52769;DHT22;40471;44.534;18.644;2024-03-23T01:14:41;8.40;99.90
52769;DHT22;40471;44.534;18.644;2024-03-23T01:17:07;8.30;99.90
52769;DHT22;40471;44.534;18.644;2024-03-23T01:19:32;8.20;99.90
52769;DHT22;40471;44.534;18.644;2024-03-23T01:21:59;8.20;99.90
52769;DHT22;40471;44.534;18.644;2024-03-23T01:24:24;8.20;99.90
52769;DHT22;40471;44.534;18.644;2024-03-23T01:26:50;8.10;99.90
52769;DHT22;40471;44.534;18.644;2024-03-23T01:29:16;8.10;99.90
52769;DHT22;40471;44.534;18.644;2024-03-23T01:31:41;8.10;99.90
52769;DHT22;40471;44.534;18.644;2024-03-23T01:34:07;8.10;99.90
52769;DHT22;40471;44.534;18.644;2024-03-23T01:36:33;8.10;99.90
52769;DHT22;40471;44.534;18.644;2024-03-23T01:38:59;8.10;99.90
52769;DHT22;40471;44.534;18.644;2024-03-23T01:41:25;8.20;99.90
52769;DHT22;40471;44.534;18.644;2024-03-23T01:43:50;8.10;99.90
52769;DHT22;40471;44.534;18.644;2024-03-23T01:46:17;8.10;99.90
52769;DHT22;40471;44.534;18.644;2024-03-23T01:48:42;8.10;99.90
52769;DHT22;40471;44.534;18.644;2024-03-23T01:51:08;8.10;99.90
52769;DHT22;40471;44.534;18.644;2024-03-23T01:53:34;8.10;99.90
52769;DHT22;40471;44.534;18.644;2024-03-23T01:56:00;8.00;99.90
52769;DHT22;40471;44.534;18.644;2024-03-23T01:58:27;7.90;99.90
52769;DHT22;40471;44.534;18.644;2024-03-23T02:00:53;7.90;99.90
52769;DHT22;40471;44.534;18.644;2024-03-23T02:03:26;7.80;99.90
52769;DHT22;40471;44.534;18.644;2024-03-23T02:05:56;7.70;99.90
52769;DHT22;40471;44.534;18.644;2024-03-23T02:08:23;7.60;99.90
52769;DHT22;40471;44.534;18.644;2024-03-23T02:10:49;7.60;99.90
52769;DHT22;40471;44.534;18.644;2024-03-23T02:13:17;7.50;99.90
52769;DHT22;40471;44.534;18.644;2024-03-23T02:15:43;7.40;99.90
52769;DHT22;40471;44.534;18.644;2024-03-23T02:18:10;7.40;99.90
52769;DHT22;40471;44.534;18.644;2024-03-23T02:20:36;7.30;99.90
52769;DHT22;40471;44.534;18.644;2024-03-23T02:23:03;7.20;99.90
52769;DHT22;40471;44.534;18.644;2024-03-23T02:25:28;7.20;99.90
52769;DHT22;40471;44.534;18.644;2024-03-23T02:27:54;7.20;99.90
52769;DHT22;40471;44.534;18.644;2024-03-23T02:30:20;7.20;99.90
52769;DHT22;40471;44.534;18.644;2024-03-23T02:32:46;7.20;99.90
52769;DHT22;40471;44.534;18.644;2024-03-23T02:35:12;7.20;99.90
52769;DHT22;40471;44.534;18.644;2024-03-23T02:37:38;7.10;99.90
52769;DHT22;40471;44.534;18.644;2024-03-23T02:40:04;7.10;99.90
52769;DHT22;40471;44.534;18.644;2024-03-23T02:42:30;7.10;99.90
52769;DHT22;40471;44.534;18.644;2024-03-23T02:44:57;7.00;99.90
52769;DHT22;40471;44.534;18.644;2024-03-23T02:47:23;7.00;99.90
52769;DHT22;40471;44.534;18.644;2024-03-23T02:49:49;7.00;99.90
52769;DHT22;40471;44.534;18.644;2024-03-23T02:52:15;6.90;99.90
52769;DHT22;40471;44.534;18.644;2024-03-23T02:54:41;6.80;99.90
52769;DHT22;40471;44.534;18.644;2024-03-23T02:57:10;6.80;99.90
52769;DHT22;40471;44.534;18.644;2024-03-23T02:59:36;6.80;99.90
52769;DHT22;40471;44.534;18.644;2024-03-23T03:02:02;6.80;99.90
52769;DHT22;40471;44.534;18.644;2024-03-23T03:04:30;6.80;99.90
52769;DHT22;40471;44.534;18.644;2024-03-23T03:06:55;6.80;99.90
52769;DHT22;40471;44.534;18.644;2024-03-23T03:09:21;6.80;99.90
52769;DHT22;40471;44.534;18.644;2024-03-23T03:11:47;6.80;99.90
52769;DHT22;40471;44.534;18.644;2024-03-23T03:14:13;6.80;99.90
52769;DHT22;40471;44.534;18.644;2024-03-23T03:16:39;6.80;99.90
52769;DHT22;40471;44.534;18.644;2024-03-23T03:19:04;6.80;99.90
52769;DHT22;40471;44.534;18.644;2024-03-23T03:21:31;6.70;99.90
52769;DHT22;40471;44.534;18.644;2024-03-23T03:23:57;6.70;99.90
52769;DHT22;40471;44.534;18.644;2024-03-23T03:26:23;6.70;99.90
52769;DHT22;40471;44.534;18.644;2024-03-23T03:28:50;6.70;99.90
52769;DHT22;40471;44.534;18.644;2024-03-23T03:31:16;6.70;99.90
52769;DHT22;40471;44.534;18.644;2024-03-23T03:33:43;6.60;99.90
52769;DHT22;40471;44.534;18.644;2024-03-23T03:36:08;6.60;99.90
52769;DHT22;40471;44.534;18.644;2024-03-23T03:38:35;6.50;99.90
52769;DHT22;40471;44.534;18.644;2024-03-23T03:41:04;6.60;99.90
52769;DHT22;40471;44.534;18.644;2024-03-23T03:43:31;6.60;99.90
52769;DHT22;40471;44.534;18.644;2024-03-23T03:45:58;6.60;99.90
52769;DHT22;40471;44.534;18.644;2024-03-23T03:48:24;6.60;99.90
52769;DHT22;40471;44.534;18.644;2024-03-23T03:50:50;6.60;99.90
52769;DHT22;40471;44.534;18.644;2024-03-23T03:53:16;6.60;99.90
52769;DHT22;40471;44.534;18.644;2024-03-23T03:55:41;6.70;99.90
52769;DHT22;40471;44.534;18.644;2024-03-23T03:58:07;6.60;99.90
52769;DHT22;40471;44.534;18.644;2024-03-23T04:00:33;6.60;99.90
52769;DHT22;40471;44.534;18.644;2024-03-23T04:02:59;6.50;99.90
52769;DHT22;40471;44.534;18.644;2024-03-23T04:05:25;6.40;99.90
52769;DHT22;40471;44.534;18.644;2024-03-23T04:07:50;6.40;99.90
52769;DHT22;40471;44.534;18.644;2024-03-23T04:10:16;6.40;99.90
52769;DHT22;40471;44.534;18.644;2024-03-23T04:12:43;6.40;99.90
52769;DHT22;40471;44.534;18.644;2024-03-23T04:15:09;6.30;99.90
52769;DHT22;40471;44.534;18.644;2024-03-23T04:17:35;6.40;99.90
52769;DHT22;40471;44.534;18.644;2024-03-23T04:20:03;6.50;99.90
52769;DHT22;40471;44.534;18.644;2024-03-23T04:22:35;6.60;99.90
52769;DHT22;40471;44.534;18.644;2024-03-23T04:25:01;6.60;99.90
52769;DHT22;40471;44.534;18.644;2024-03-23T04:27:35;6.60;99.90
52769;DHT22;40471;44.534;18.644;2024-03-23T04:30:01;6.60;99.90
52769;DHT22;40471;44.534;18.644;2024-03-23T04:32:27;6.50;99.90
52769;DHT22;40471;44.534;18.644;2024-03-23T04:34:54;6.50;99.90
52769;DHT22;40471;44.534;18.644;2024-03-23T04:37:20;6.40;99.90
52769;DHT22;40471;44.534;18.644;2024-03-23T04:39:46;6.40;99.90
52769;DHT22;40471;44.534;18.644;2024-03-23T04:42:11;6.40;99.90
52769;DHT22;40471;44.534;18.644;2024-03-23T04:44:37;6.50;99.90
52769;DHT22;40471;44.534;18.644;2024-03-23T04:47:04;6.50;99.90
52769;DHT22;40471;44.534;18.644;2024-03-23T04:49:31;6.50;99.90
52769;DHT22;40471;44.534;18.644;2024-03-23T04:51:57;6.50;99.90
52769;DHT22;40471;44.534;18.644;2024-03-23T04:54:22;6.60;99.90
52769;DHT22;40471;44.534;18.644;2024-03-23T04:56:48;6.60;99.90
52769;DHT22;40471;44.534;18.644;2024-03-23T04:59:14;6.70;99.90
52769;DHT22;40471;44.534;18.644;2024-03-23T05:01:39;6.70;99.90
52769;DHT22;40471;44.534;18.644;2024-03-23T05:04:07;6.70;99.90
52769;DHT22;40471;44.534;18.644;2024-03-23T05:06:33;6.80;99.90
52769;DHT22;40471;44.534;18.644;2024-03-23T05:09:00;7.00;99.90
52769;DHT22;40471;44.534;18.644;2024-03-23T05:11:31;7.30;99.90
52769;DHT22;40471;44.534;18.644;2024-03-23T05:13:57;8.20;99.90
52769;DHT22;40471;44.534;18.644;2024-03-23T05:16:23;9.90;99.90
52769;DHT22;40471;44.534;18.644;2024-03-23T05:18:49;11.40;99.90
52769;DHT22;40471;44.534;18.644;2024-03-23T05:21:15;12.60;99.90
52769;DHT22;40471;44.534;18.644;2024-03-23T05:23:40;13.60;98.90
52769;DHT22;40471;44.534;18.644;2024-03-23T05:26:06;14.20;95.00
52769;DHT22;40471;44.534;18.644;2024-03-23T05:28:32;14.90;90.00
52769;DHT22;40471;44.534;18.644;2024-03-23T05:30:57;15.50;82.00
52769;DHT22;40471;44.534;18.644;2024-03-23T05:33:23;16.20;78.70
52769;DHT22;40471;44.534;18.644;2024-03-23T05:36:01;16.90;75.80
52769;DHT22;40471;44.534;18.644;2024-03-23T05:38:27;17.80;73.70
52769;DHT22;40471;44.534;18.644;2024-03-23T05:43:20;19.60;67.70
52769;DHT22;40471;44.534;18.644;2024-03-23T05:45:46;20.30;65.20
52769;DHT22;40471;44.534;18.644;2024-03-23T05:48:11;20.90;63.10
52769;DHT22;40471;44.534;18.644;2024-03-23T05:50:37;21.70;60.90
52769;DHT22;40471;44.534;18.644;2024-03-23T05:53:03;22.50;59.30
52769;DHT22;40471;44.534;18.644;2024-03-23T05:55:30;23.10;56.00
52769;DHT22;40471;44.534;18.644;2024-03-23T05:57:56;23.50;56.10
52769;DHT22;40471;44.534;18.644;2024-03-23T06:00:21;24.10;55.40
52769;DHT22;40471;44.534;18.644;2024-03-23T06:02:48;24.70;53.90
52769;DHT22;40471;44.534;18.644;2024-03-23T06:05:13;25.10;52.90
52769;DHT22;40471;44.534;18.644;2024-03-23T06:07:39;25.60;51.90
52769;DHT22;40471;44.534;18.644;2024-03-23T06:10:05;25.80;51.10
52769;DHT22;40471;44.534;18.644;2024-03-23T06:12:32;26.10;50.20
52769;DHT22;40471;44.534;18.644;2024-03-23T06:14:57;26.60;50.30
52769;DHT22;40471;44.534;18.644;2024-03-23T06:17:23;27.40;48.40
52769;DHT22;40471;44.534;18.644;2024-03-23T06:19:49;27.80;49.00
52769;DHT22;40471;44.534;18.644;2024-03-23T06:22:15;27.90;47.70
52769;DHT22;40471;44.534;18.644;2024-03-23T06:24:42;28.40;47.60
52769;DHT22;40471;44.534;18.644;2024-03-23T06:27:07;28.70;47.10
52769;DHT22;40471;44.534;18.644;2024-03-23T06:29:34;28.80;46.70
52769;DHT22;40471;44.534;18.644;2024-03-23T06:32:02;29.50;45.80
52769;DHT22;40471;44.534;18.644;2024-03-23T06:34:29;29.80;45.70
52769;DHT22;40471;44.534;18.644;2024-03-23T06:36:55;29.70;45.20
52769;DHT22;40471;44.534;18.644;2024-03-23T06:39:21;29.70;45.70
52769;DHT22;40471;44.534;18.644;2024-03-23T06:41:53;30.10;45.30
52769;DHT22;40471;44.534;18.644;2024-03-23T06:44:20;30.60;45.30
52769;DHT22;40471;44.534;18.644;2024-03-23T06:46:46;30.70;44.70
52769;DHT22;40471;44.534;18.644;2024-03-23T06:49:13;30.90;44.60
52769;DHT22;40471;44.534;18.644;2024-03-23T06:51:38;30.90;43.60
52769;DHT22;40471;44.534;18.644;2024-03-23T06:54:04;31.00;44.30
52769;DHT22;40471;44.534;18.644;2024-03-23T06:56:30;31.40;43.20
52769;DHT22;40471;44.534;18.644;2024-03-23T06:58:57;31.60;43.10
52769;DHT22;40471;44.534;18.644;2024-03-23T07:01:22;31.50;43.30
52769;DHT22;40471;44.534;18.644;2024-03-23T07:03:48;32.10;43.70
52769;DHT22;40471;44.534;18.644;2024-03-23T07:06:14;32.70;43.60
52769;DHT22;40471;44.534;18.644;2024-03-23T07:08:40;33.10;42.50
52769;DHT22;40471;44.534;18.644;2024-03-23T07:11:05;33.40;42.70
52769;DHT22;40471;44.534;18.644;2024-03-23T07:13:31;33.50;42.00
52769;DHT22;40471;44.534;18.644;2024-03-23T07:15:57;33.90;42.50
52769;DHT22;40471;44.534;18.644;2024-03-23T07:18:23;34.10;41.70
52769;DHT22;40471;44.534;18.644;2024-03-23T07:20:56;34.60;41.30
52769;DHT22;40471;44.534;18.644;2024-03-23T07:23:23;34.80;41.00
52769;DHT22;40471;44.534;18.644;2024-03-23T07:26:04;34.90;41.30
52769;DHT22;40471;44.534;18.644;2024-03-23T07:28:34;35.40;41.00
52769;DHT22;40471;44.534;18.644;2024-03-23T07:31:06;35.80;41.50
52769;DHT22;40471;44.534;18.644;2024-03-23T07:33:32;35.80;40.80
52769;DHT22;40471;44.534;18.644;2024-03-23T07:35:59;36.20;40.80
52769;DHT22;40471;44.534;18.644;2024-03-23T07:38:28;36.60;40.20
52769;DHT22;40471;44.534;18.644;2024-03-23T07:41:10;36.60;40.90
52769;DHT22;40471;44.534;18.644;2024-03-23T07:43:39;36.80;40.10
52769;DHT22;40471;44.534;18.644;2024-03-23T07:46:05;36.90;40.00
52769;DHT22;40471;44.534;18.644;2024-03-23T07:48:32;37.00;40.00
52769;DHT22;40471;44.534;18.644;2024-03-23T07:53:28;37.30;40.10
52769;DHT22;40471;44.534;18.644;2024-03-23T07:55:59;37.30;38.70
52769;DHT22;40471;44.534;18.644;2024-03-23T07:58:28;37.00;38.40
52769;DHT22;40471;44.534;18.644;2024-03-23T08:00:54;36.60;38.50
52769;DHT22;40471;44.534;18.644;2024-03-23T08:03:20;36.20;38.80
52769;DHT22;40471;44.534;18.644;2024-03-23T08:05:46;35.80;38.70
52769;DHT22;40471;44.534;18.644;2024-03-23T08:08:12;35.50;38.60
52769;DHT22;40471;44.534;18.644;2024-03-23T08:10:51;35.10;39.10
52769;DHT22;40471;44.534;18.644;2024-03-23T08:13:17;35.00;39.40
52769;DHT22;40471;44.534;18.644;2024-03-23T08:15:44;34.90;39.60
52769;DHT22;40471;44.534;18.644;2024-03-23T08:18:11;34.60;39.80
52769;DHT22;40471;44.534;18.644;2024-03-23T08:20:37;34.20;40.30
52769;DHT22;40471;44.534;18.644;2024-03-23T08:23:07;34.20;40.30
52769;DHT22;40471;44.534;18.644;2024-03-23T08:25:33;33.80;40.40
52769;DHT22;40471;44.534;18.644;2024-03-23T08:27:59;33.30;40.40
52769;DHT22;40471;44.534;18.644;2024-03-23T08:30:25;33.10;41.10
52769;DHT22;40471;44.534;18.644;2024-03-23T08:32:51;33.00;41.10
52769;DHT22;40471;44.534;18.644;2024-03-23T08:35:17;33.30;40.90
52769;DHT22;40471;44.534;18.644;2024-03-23T08:37:42;33.00;40.60
52769;DHT22;40471;44.534;18.644;2024-03-23T08:40:08;32.60;40.70
52769;DHT22;40471;44.534;18.644;2024-03-23T08:42:35;32.40;41.20
52769;DHT22;40471;44.534;18.644;2024-03-23T08:45:00;32.20;41.50
52769;DHT22;40471;44.534;18.644;2024-03-23T08:47:26;32.40;41.80
52769;DHT22;40471;44.534;18.644;2024-03-23T08:49:52;32.20;41.50
52769;DHT22;40471;44.534;18.644;2024-03-23T08:52:18;32.30;41.60
52769;DHT22;40471;44.534;18.644;2024-03-23T08:54:43;32.20;41.60
52769;DHT22;40471;44.534;18.644;2024-03-23T08:57:09;32.10;43.00
52769;DHT22;40471;44.534;18.644;2024-03-23T08:59:35;32.00;42.50
52769;DHT22;40471;44.534;18.644;2024-03-23T09:02:03;32.20;41.80
52769;DHT22;40471;44.534;18.644;2024-03-23T09:04:30;32.20;41.60
52769;DHT22;40471;44.534;18.644;2024-03-23T09:06:55;32.20;41.80
52769;DHT22;40471;44.534;18.644;2024-03-23T09:09:23;32.20;42.10
52769;DHT22;40471;44.534;18.644;2024-03-23T09:11:48;32.10;42.60
52769;DHT22;40471;44.534;18.644;2024-03-23T09:14:14;32.00;42.10
52769;DHT22;40471;44.534;18.644;2024-03-23T09:16:40;31.80;42.30
52769;DHT22;40471;44.534;18.644;2024-03-23T09:19:05;31.80;41.50
52769;DHT22;40471;44.534;18.644;2024-03-23T09:21:31;31.70;42.30
52769;DHT22;40471;44.534;18.644;2024-03-23T09:23:57;31.60;42.20
52769;DHT22;40471;44.534;18.644;2024-03-23T09:26:22;31.40;42.50
52769;DHT22;40471;44.534;18.644;2024-03-23T09:28:49;31.30;42.20
52769;DHT22;40471;44.534;18.644;2024-03-23T09:31:15;31.00;42.20
52769;DHT22;40471;44.534;18.644;2024-03-23T09:33:41;31.10;42.80
52769;DHT22;40471;44.534;18.644;2024-03-23T09:36:07;31.00;42.70
52769;DHT22;40471;44.534;18.644;2024-03-23T09:38:34;31.00;41.40
52769;DHT22;40471;44.534;18.644;2024-03-23T09:41:00;30.80;42.60
52769;DHT22;40471;44.534;18.644;2024-03-23T09:43:26;30.90;42.30
52769;DHT22;40471;44.534;18.644;2024-03-23T09:45:52;31.10;41.40
52769;DHT22;40471;44.534;18.644;2024-03-23T09:48:19;31.30;42.00
52769;DHT22;40471;44.534;18.644;2024-03-23T09:50:45;31.30;40.80
52769;DHT22;40471;44.534;18.644;2024-03-23T09:53:12;31.60;41.20
52769;DHT22;40471;44.534;18.644;2024-03-23T09:55:42;31.70;40.80
52769;DHT22;40471;44.534;18.644;2024-03-23T09:58:08;31.60;40.90
52769;DHT22;40471;44.534;18.644;2024-03-23T10:00:37;31.40;40.60
52769;DHT22;40471;44.534;18.644;2024-03-23T10:03:04;31.50;40.40
52769;DHT22;40471;44.534;18.644;2024-03-23T10:05:32;31.60;41.30
52769;DHT22;40471;44.534;18.644;2024-03-23T10:08:00;31.80;42.20
52769;DHT22;40471;44.534;18.644;2024-03-23T10:10:26;31.80;40.90
52769;DHT22;40471;44.534;18.644;2024-03-23T10:12:52;31.70;42.10
52769;DHT22;40471;44.534;18.644;2024-03-23T10:15:22;31.80;41.30
52769;DHT22;40471;44.534;18.644;2024-03-23T10:17:48;31.60;40.60
52769;DHT22;40471;44.534;18.644;2024-03-23T10:20:23;31.70;40.20
52769;DHT22;40471;44.534;18.644;2024-03-23T10:22:50;31.40;39.80
52769;DHT22;40471;44.534;18.644;2024-03-23T10:25:17;31.30;40.50
52769;DHT22;40471;44.534;18.644;2024-03-23T10:27:43;31.10;40.70
52769;DHT22;40471;44.534;18.644;2024-03-23T10:30:13;31.00;41.20
52769;DHT22;40471;44.534;18.644;2024-03-23T10:32:42;30.90;39.80
52769;DHT22;40471;44.534;18.644;2024-03-23T10:35:19;31.20;40.60
52769;DHT22;40471;44.534;18.644;2024-03-23T10:37:48;31.20;40.60
52769;DHT22;40471;44.534;18.644;2024-03-23T10:40:15;31.40;40.90
52769;DHT22;40471;44.534;18.644;2024-03-23T10:42:41;31.80;40.80
52769;DHT22;40471;44.534;18.644;2024-03-23T10:45:08;31.60;40.00
52769;DHT22;40471;44.534;18.644;2024-03-23T10:47:35;31.40;39.00
52769;DHT22;40471;44.534;18.644;2024-03-23T10:50:03;31.20;40.00
52769;DHT22;40471;44.534;18.644;2024-03-23T10:52:29;31.50;40.30
52769;DHT22;40471;44.534;18.644;2024-03-23T10:54:56;31.60;40.00
52769;DHT22;40471;44.534;18.644;2024-03-23T10:57:29;31.70;41.40
52769;DHT22;40471;44.534;18.644;2024-03-23T10:59:56;31.90;41.10
52769;DHT22;40471;44.534;18.644;2024-03-23T11:02:23;32.00;40.20
52769;DHT22;40471;44.534;18.644;2024-03-23T11:04:49;31.90;39.00
52769;DHT22;40471;44.534;18.644;2024-03-23T11:09:56;31.90;40.60
52769;DHT22;40471;44.534;18.644;2024-03-23T11:15:05;32.00;40.40
52769;DHT22;40471;44.534;18.644;2024-03-23T11:17:31;32.20;39.30
52769;DHT22;40471;44.534;18.644;2024-03-23T11:20:03;31.80;39.30
52769;DHT22;40471;44.534;18.644;2024-03-23T11:22:41;31.60;39.70
52769;DHT22;40471;44.534;18.644;2024-03-23T11:25:18;30.80;39.30
52769;DHT22;40471;44.534;18.644;2024-03-23T11:27:46;30.70;40.40
52769;DHT22;40471;44.534;18.644;2024-03-23T11:32:45;30.80;39.70
52769;DHT22;40471;44.534;18.644;2024-03-23T11:35:28;30.90;39.70
52769;DHT22;40471;44.534;18.644;2024-03-23T11:38:16;31.30;39.80
52769;DHT22;40471;44.534;18.644;2024-03-23T11:40:49;31.60;39.10
52769;DHT22;40471;44.534;18.644;2024-03-23T11:43:16;31.70;38.60
52769;DHT22;40471;44.534;18.644;2024-03-23T11:45:50;31.90;38.80
52769;DHT22;40471;44.534;18.644;2024-03-23T11:48:23;32.00;39.50
52769;DHT22;40471;44.534;18.644;2024-03-23T11:50:57;32.30;38.30
52769;DHT22;40471;44.534;18.644;2024-03-23T11:53:25;32.30;38.60
52769;DHT22;40471;44.534;18.644;2024-03-23T11:55:58;32.50;37.50
52769;DHT22;40471;44.534;18.644;2024-03-23T11:58:26;32.60;38.00
52769;DHT22;40471;44.534;18.644;2024-03-23T12:00:57;31.80;36.60
52769;DHT22;40471;44.534;18.644;2024-03-23T12:03:23;31.20;37.10
52769;DHT22;40471;44.534;18.644;2024-03-23T12:05:57;30.50;38.30
52769;DHT22;40471;44.534;18.644;2024-03-23T12:08:25;30.40;39.10
52769;DHT22;40471;44.534;18.644;2024-03-23T12:11:17;30.50;39.30
52769;DHT22;40471;44.534;18.644;2024-03-23T12:13:44;30.90;38.30
52769;DHT22;40471;44.534;18.644;2024-03-23T12:16:21;30.60;38.80
52769;DHT22;40471;44.534;18.644;2024-03-23T12:18:48;30.70;39.90
52769;DHT22;40471;44.534;18.644;2024-03-23T12:21:17;30.90;38.90
52769;DHT22;40471;44.534;18.644;2024-03-23T12:23:43;31.20;37.70
52769;DHT22;40471;44.534;18.644;2024-03-23T12:26:14;30.90;38.00
52769;DHT22;40471;44.534;18.644;2024-03-23T12:28:39;30.80;38.10
52769;DHT22;40471;44.534;18.644;2024-03-23T12:31:05;31.10;39.40
52769;DHT22;40471;44.534;18.644;2024-03-23T12:33:32;31.00;38.50
52769;DHT22;40471;44.534;18.644;2024-03-23T12:35:58;31.00;38.90
52769;DHT22;40471;44.534;18.644;2024-03-23T12:38:24;30.80;39.00
52769;DHT22;40471;44.534;18.644;2024-03-23T12:40:50;30.50;39.10
52769;DHT22;40471;44.534;18.644;2024-03-23T12:43:17;30.50;39.60
52769;DHT22;40471;44.534;18.644;2024-03-23T12:45:49;30.40;37.90
52769;DHT22;40471;44.534;18.644;2024-03-23T12:48:16;30.10;39.50
52769;DHT22;40471;44.534;18.644;2024-03-23T12:50:42;30.00;38.80
52769;DHT22;40471;44.534;18.644;2024-03-23T12:53:08;29.80;39.20
52769;DHT22;40471;44.534;18.644;2024-03-23T12:55:37;30.10;39.60
52769;DHT22;40471;44.534;18.644;2024-03-23T12:58:03;30.30;39.40
52769;DHT22;40471;44.534;18.644;2024-03-23T13:00:29;30.30;40.00
52769;DHT22;40471;44.534;18.644;2024-03-23T13:02:55;30.50;38.90
52769;DHT22;40471;44.534;18.644;2024-03-23T13:05:20;30.50;39.40
52769;DHT22;40471;44.534;18.644;2024-03-23T13:07:46;30.40;38.70
52769;DHT22;40471;44.534;18.644;2024-03-23T13:10:12;30.00;38.80
52769;DHT22;40471;44.534;18.644;2024-03-23T13:12:38;29.80;40.30
52769;DHT22;40471;44.534;18.644;2024-03-23T13:15:05;29.70;39.90
52769;DHT22;40471;44.534;18.644;2024-03-23T13:17:31;29.60;40.00
52769;DHT22;40471;44.534;18.644;2024-03-23T13:19:57;29.60;40.30
52769;DHT22;40471;44.534;18.644;2024-03-23T13:22:22;29.80;39.60
52769;DHT22;40471;44.534;18.644;2024-03-23T13:24:48;29.70;39.10
52769;DHT22;40471;44.534;18.644;2024-03-23T13:27:14;29.30;39.30
52769;DHT22;40471;44.534;18.644;2024-03-23T13:29:40;29.40;39.00
52769;DHT22;40471;44.534;18.644;2024-03-23T13:32:06;29.30;39.00
52769;DHT22;40471;44.534;18.644;2024-03-23T13:34:32;29.30;41.00
52769;DHT22;40471;44.534;18.644;2024-03-23T13:36:59;29.30;40.00
52769;DHT22;40471;44.534;18.644;2024-03-23T13:39:25;28.70;39.80
52769;DHT22;40471;44.534;18.644;2024-03-23T13:41:53;28.50;40.10
52769;DHT22;40471;44.534;18.644;2024-03-23T13:44:22;28.10;40.40
52769;DHT22;40471;44.534;18.644;2024-03-23T13:46:48;27.70;40.60
52769;DHT22;40471;44.534;18.644;2024-03-23T13:49:28;27.50;40.50
52769;DHT22;40471;44.534;18.644;2024-03-23T13:51:55;27.50;40.10
52769;DHT22;40471;44.534;18.644;2024-03-23T13:54:22;27.40;40.60
52769;DHT22;40471;44.534;18.644;2024-03-23T13:56:55;27.40;41.40
52769;DHT22;40471;44.534;18.644;2024-03-23T13:59:21;27.50;40.90
52769;DHT22;40471;44.534;18.644;2024-03-23T14:01:51;27.30;41.90
52769;DHT22;40471;44.534;18.644;2024-03-23T14:04:17;27.30;42.30
52769;DHT22;40471;44.534;18.644;2024-03-23T14:06:44;27.10;42.00
52769;DHT22;40471;44.534;18.644;2024-03-23T14:09:13;26.70;40.60
52769;DHT22;40471;44.534;18.644;2024-03-23T14:11:40;26.60;41.60
52769;DHT22;40471;44.534;18.644;2024-03-23T14:14:08;26.50;42.40
52769;DHT22;40471;44.534;18.644;2024-03-23T14:16:34;26.50;41.90
52769;DHT22;40471;44.534;18.644;2024-03-23T14:19:00;26.50;41.60
52769;DHT22;40471;44.534;18.644;2024-03-23T14:21:26;26.20;41.50
52769;DHT22;40471;44.534;18.644;2024-03-23T14:23:52;26.00;42.30
52769;DHT22;40471;44.534;18.644;2024-03-23T14:26:19;25.80;42.40
52769;DHT22;40471;44.534;18.644;2024-03-23T14:28:45;25.40;42.40
52769;DHT22;40471;44.534;18.644;2024-03-23T14:31:11;25.10;43.10
52769;DHT22;40471;44.534;18.644;2024-03-23T14:33:37;25.00;43.40
52769;DHT22;40471;44.534;18.644;2024-03-23T14:36:04;24.80;43.50
52769;DHT22;40471;44.534;18.644;2024-03-23T14:38:30;24.80;43.40
52769;DHT22;40471;44.534;18.644;2024-03-23T14:41:00;24.90;43.90
52769;DHT22;40471;44.534;18.644;2024-03-23T14:43:28;25.00;44.50
52769;DHT22;40471;44.534;18.644;2024-03-23T14:46:13;25.10;43.70
52769;DHT22;40471;44.534;18.644;2024-03-23T14:48:40;24.90;43.50
52769;DHT22;40471;44.534;18.644;2024-03-23T14:51:07;24.90;43.80
52769;DHT22;40471;44.534;18.644;2024-03-23T14:53:41;24.90;44.30
52769;DHT22;40471;44.534;18.644;2024-03-23T14:56:08;24.80;43.90
52769;DHT22;40471;44.534;18.644;2024-03-23T14:58:34;24.70;44.80
52769;DHT22;40471;44.534;18.644;2024-03-23T15:01:04;24.80;44.90
52769;DHT22;40471;44.534;18.644;2024-03-23T15:03:30;24.70;44.80
52769;DHT22;40471;44.534;18.644;2024-03-23T15:05:55;24.60;45.10
52769;DHT22;40471;44.534;18.644;2024-03-23T15:08:21;24.40;45.30
52769;DHT22;40471;44.534;18.644;2024-03-23T15:10:48;24.20;45.50
52769;DHT22;40471;44.534;18.644;2024-03-23T15:13:13;24.20;45.50
52769;DHT22;40471;44.534;18.644;2024-03-23T15:15:40;24.10;45.70
52769;DHT22;40471;44.534;18.644;2024-03-23T15:18:10;24.00;46.20
52769;DHT22;40471;44.534;18.644;2024-03-23T15:20:35;23.80;46.20
52769;DHT22;40471;44.534;18.644;2024-03-23T15:23:04;23.70;46.50
52769;DHT22;40471;44.534;18.644;2024-03-23T15:25:30;23.60;46.80
52769;DHT22;40471;44.534;18.644;2024-03-23T15:27:57;23.40;46.80
52769;DHT22;40471;44.534;18.644;2024-03-23T15:30:24;23.30;46.90
52769;DHT22;40471;44.534;18.644;2024-03-23T15:32:50;23.30;47.40
52769;DHT22;40471;44.534;18.644;2024-03-23T15:35:16;23.20;47.50
52769;DHT22;40471;44.534;18.644;2024-03-23T15:37:41;23.00;47.90
52769;DHT22;40471;44.534;18.644;2024-03-23T15:40:08;23.00;48.00
52769;DHT22;40471;44.534;18.644;2024-03-23T15:42:35;23.00;48.20
52769;DHT22;40471;44.534;18.644;2024-03-23T15:45:01;22.90;48.30
52769;DHT22;40471;44.534;18.644;2024-03-23T15:47:29;22.90;48.10
52769;DHT22;40471;44.534;18.644;2024-03-23T15:49:54;22.80;48.30
52769;DHT22;40471;44.534;18.644;2024-03-23T15:52:21;22.70;48.40
52769;DHT22;40471;44.534;18.644;2024-03-23T15:54:47;22.70;48.90
52769;DHT22;40471;44.534;18.644;2024-03-23T15:57:13;22.70;49.10
52769;DHT22;40471;44.534;18.644;2024-03-23T15:59:41;22.50;48.70
52769;DHT22;40471;44.534;18.644;2024-03-23T16:02:07;22.40;48.90
52769;DHT22;40471;44.534;18.644;2024-03-23T16:04:33;22.30;48.90
52769;DHT22;40471;44.534;18.644;2024-03-23T16:06:58;22.20;49.10
52769;DHT22;40471;44.534;18.644;2024-03-23T16:09:24;22.30;49.00
52769;DHT22;40471;44.534;18.644;2024-03-23T16:11:51;22.40;49.20
52769;DHT22;40471;44.534;18.644;2024-03-23T16:14:18;22.40;49.30
52769;DHT22;40471;44.534;18.644;2024-03-23T16:16:44;22.30;49.20
52769;DHT22;40471;44.534;18.644;2024-03-23T16:19:09;22.30;49.20
52769;DHT22;40471;44.534;18.644;2024-03-23T16:21:38;22.30;49.50
52769;DHT22;40471;44.534;18.644;2024-03-23T16:24:04;22.30;49.60
52769;DHT22;40471;44.534;18.644;2024-03-23T16:26:29;22.20;49.70